createdAt,value
2019-02-08T00:00:56.471Z,33.10
2019-02-08T00:03:27.527Z,33.10
2019-02-08T00:05:56.281Z,32.33
2019-02-08T00:08:29.223Z,33.10
2019-02-08T00:10:57.252Z,33.37
2019-02-08T00:13:40.023Z,33.27
2019-02-08T00:16:08.966Z,32.57
2019-02-08T00:18:45.318Z,31.77
2019-02-08T00:21:13.591Z,32.47
2019-02-08T00:23:44.570Z,33.30
2019-02-08T00:26:12.796Z,33.07
2019-02-08T00:28:42.360Z,32.63
2019-02-08T00:31:10.524Z,32.57
2019-02-08T00:33:38.668Z,33.77
2019-02-08T00:36:06.499Z,33.47
2019-02-08T00:38:34.454Z,33.23
2019-02-08T00:41:02.386Z,35.63
2019-02-08T00:43:30.878Z,34.83
2019-02-08T00:45:58.881Z,33.03
2019-02-08T00:48:26.866Z,33.50
2019-02-08T00:50:55.265Z,34.03
2019-02-08T00:53:23.388Z,33.73
2019-02-08T00:55:51.456Z,33.30
2019-02-08T00:58:19.875Z,32.13
2019-02-08T01:00:47.786Z,32.80
2019-02-08T01:03:15.896Z,34.23
2019-02-08T01:05:43.741Z,33.97
2019-02-08T01:08:11.848Z,32.70
2019-02-08T01:10:40.511Z,32.87
2019-02-08T01:13:08.880Z,33.13
2019-02-08T01:15:39.515Z,33.47
2019-02-08T01:18:09.332Z,34.37
2019-02-08T01:20:37.302Z,32.03
2019-02-08T01:23:05.369Z,34.47
2019-02-08T01:25:33.650Z,33.27
2019-02-08T01:28:01.772Z,32.73
2019-02-08T01:30:30.017Z,33.03
2019-02-08T01:32:58.133Z,32.40
2019-02-08T01:35:27.776Z,33.33
2019-02-08T01:37:58.089Z,32.20
2019-02-08T01:40:30.932Z,33.23
2019-02-08T01:43:00.314Z,34.10
2019-02-08T01:45:29.515Z,33.27
2019-02-08T01:47:57.404Z,32.53
2019-02-08T01:50:26.470Z,34.67
2019-02-08T01:52:54.762Z,31.87
2019-02-08T01:55:22.844Z,33.47
2019-02-08T01:57:51.502Z,33.27
2019-02-08T02:00:24.695Z,33.47
2019-02-08T02:02:53.271Z,33.67
2019-02-08T02:05:21.258Z,34.50
2019-02-08T02:07:49.133Z,34.20
2019-02-08T02:10:25.379Z,34.00
2019-02-08T02:12:53.502Z,34.40
2019-02-08T02:15:21.723Z,35.37
2019-02-08T02:20:29.954Z,34.80
2019-02-08T02:22:57.898Z,34.27
2019-02-08T02:25:26.250Z,34.60
2019-02-08T02:27:57.009Z,34.90
2019-02-08T02:30:31.217Z,33.17
2019-02-08T02:33:02.015Z,33.97
2019-02-08T02:35:34.639Z,35.00
2019-02-08T02:38:16.842Z,35.67
2019-02-08T02:40:45.372Z,34.33
2019-02-08T02:43:43.688Z,34.77
2019-02-08T02:46:10.787Z,34.20
2019-02-08T02:48:48.273Z,34.30
2019-02-08T02:51:59.740Z,35.50
2019-02-08T02:54:34.854Z,34.67
2019-02-08T02:57:07.354Z,35.17
2019-02-08T02:59:35.630Z,35.83
2019-02-08T03:02:04.039Z,34.43
2019-02-08T03:04:32.488Z,34.77
2019-02-08T03:07:00.781Z,37.03
2019-02-08T03:09:28.929Z,37.90
2019-02-08T03:11:57.675Z,36.43
2019-02-08T03:14:25.957Z,35.03
2019-02-08T03:16:54.256Z,36.73
2019-02-08T03:19:24.768Z,36.70
2019-02-08T03:21:52.813Z,36.63
2019-02-08T03:24:20.961Z,36.33
2019-02-08T03:26:49.344Z,34.90
2019-02-08T03:29:20.945Z,33.90
2019-02-08T03:31:49.105Z,35.60
2019-02-08T03:34:20.225Z,36.13
2019-02-08T03:36:48.449Z,35.73
2019-02-08T03:39:16.893Z,35.97
2019-02-08T03:41:45.418Z,35.30
2019-02-08T03:44:21.163Z,35.70
2019-02-08T03:47:09.140Z,36.40
2019-02-08T03:49:43.102Z,36.23
2019-02-08T03:52:13.943Z,35.90
2019-02-08T03:54:59.953Z,36.53
2019-02-08T03:57:46.455Z,35.30
2019-02-08T04:00:38.814Z,33.97
2019-02-08T04:03:36.329Z,33.20
2019-02-08T04:06:04.396Z,35.37
2019-02-08T04:08:32.375Z,36.37
2019-02-08T04:11:02.092Z,37.63
2019-02-08T04:13:30.740Z,36.37
2019-02-08T04:15:59.553Z,35.80
2019-02-08T04:18:31.082Z,37.30
2019-02-08T04:20:59.112Z,38.40
2019-02-08T04:23:30.400Z,38.07
2019-02-08T04:25:58.588Z,40.00
2019-02-08T04:28:28.138Z,38.57
2019-02-08T04:30:56.273Z,39.50
2019-02-08T04:33:24.405Z,41.13
2019-02-08T04:35:52.642Z,40.07
2019-02-08T04:38:21.426Z,41.63
2019-02-08T04:40:49.371Z,39.87
2019-02-08T04:43:17.563Z,41.57
2019-02-08T04:45:45.968Z,40.53
2019-02-08T04:48:14.090Z,41.73
2019-02-08T04:50:42.253Z,40.27
2019-02-08T04:53:16.463Z,41.10
2019-02-08T04:55:44.628Z,39.57
2019-02-08T04:58:17.029Z,40.27
2019-02-08T05:00:44.942Z,41.40
2019-02-08T05:03:16.244Z,40.97
2019-02-08T05:05:57.630Z,41.20
2019-02-08T05:08:25.798Z,39.57
2019-02-08T05:10:53.776Z,38.93
2019-02-08T05:13:52.549Z,40.07
2019-02-08T05:16:35.790Z,38.43
2019-02-08T05:19:16.389Z,36.47
2019-02-08T05:21:51.263Z,37.10
2019-02-08T05:25:16.500Z,39.40
2019-02-08T05:28:07.699Z,37.67
2019-02-08T05:30:41.533Z,33.10
2019-02-08T05:33:09.743Z,38.67
2019-02-08T05:35:43.309Z,36.93
2019-02-08T05:38:19.981Z,38.33
2019-02-08T05:40:48.147Z,38.60
2019-02-08T05:43:50.120Z,38.80
2019-02-08T05:46:40.809Z,31.17
2019-02-08T05:49:11.548Z,37.80
2019-02-08T05:51:39.529Z,38.53
2019-02-08T05:54:07.669Z,38.47
2019-02-08T05:56:35.809Z,38.43
2019-02-08T05:59:03.622Z,38.93
2019-02-08T06:01:31.323Z,39.40
2019-02-08T06:03:58.979Z,39.30
2019-02-08T06:06:26.582Z,38.83
2019-02-08T06:08:54.375Z,39.07
2019-02-08T06:11:22.028Z,39.70
2019-02-08T06:13:49.544Z,41.13
2019-02-08T06:16:17.119Z,40.87
2019-02-08T06:18:45.879Z,42.37
2019-02-08T06:21:13.477Z,40.30
2019-02-08T06:23:41.033Z,40.57
2019-02-08T06:26:08.676Z,39.67
2019-02-08T06:28:36.240Z,43.00
2019-02-08T06:31:04.316Z,42.07
2019-02-08T06:33:31.946Z,42.43
2019-02-08T06:35:59.468Z,44.37
2019-02-08T06:38:27.106Z,43.73
2019-02-08T06:40:54.678Z,41.27
2019-02-08T06:43:22.294Z,41.73
2019-02-08T06:45:49.924Z,41.50
2019-02-08T06:48:17.550Z,40.80
2019-02-08T06:50:45.375Z,40.83
2019-02-08T06:53:12.955Z,43.53
2019-02-08T06:55:40.498Z,40.37
2019-02-08T06:58:38.902Z,40.57
2019-02-08T07:01:32.728Z,39.93
2019-02-08T07:04:22.337Z,39.90
2019-02-08T07:07:15.200Z,39.53
2019-02-08T07:10:00.560Z,38.20
2019-02-08T07:12:46.134Z,39.67
2019-02-08T07:15:24.724Z,38.17
2019-02-08T07:18:20.310Z,38.20
2019-02-08T07:21:01.168Z,38.60
2019-02-08T07:23:46.624Z,37.73
2019-02-08T07:26:45.636Z,37.27
2019-02-08T07:29:32.737Z,37.10
2019-02-08T07:32:22.404Z,36.77
2019-02-08T07:35:12.152Z,35.97
2019-02-08T07:38:08.117Z,36.37
2019-02-08T07:40:57.020Z,36.60
2019-02-08T07:43:34.581Z,36.73
2019-02-08T07:46:21.137Z,35.60
2019-02-08T07:48:59.532Z,36.47
2019-02-08T07:51:52.923Z,34.77
2019-02-08T07:54:45.841Z,36.20
2019-02-08T07:57:38.843Z,35.60
2019-02-08T08:00:27.492Z,37.30
2019-02-08T08:03:14.620Z,36.37
2019-02-08T08:06:10.286Z,37.30
2019-02-08T08:09:12.421Z,35.37
2019-02-08T08:11:45.413Z,35.00
2019-02-08T08:14:32.654Z,36.20
2019-02-08T08:17:14.472Z,35.10
2019-02-08T08:20:16.593Z,35.67
2019-02-08T08:23:12.698Z,35.40
2019-02-08T08:25:55.307Z,33.80
2019-02-08T08:28:42.612Z,35.27
2019-02-08T08:31:22.732Z,33.00
2019-02-08T08:34:32.577Z,33.43
2019-02-08T08:37:47.660Z,32.97
2019-02-08T08:41:18.090Z,32.97
2019-02-08T08:44:27.654Z,33.40
2019-02-08T08:47:50.819Z,32.80
2019-02-08T08:50:45.834Z,33.20
2019-02-08T08:53:30.686Z,33.50
2019-02-08T08:56:27.631Z,32.30
2019-02-08T08:59:20.673Z,31.73
2019-02-08T09:02:27.423Z,33.10
2019-02-08T09:05:31.438Z,33.53
2019-02-08T09:08:40.709Z,32.43
2019-02-08T09:11:44.632Z,34.73
2019-02-08T09:14:59.649Z,33.60
2019-02-08T09:17:49.047Z,33.90
2019-02-08T09:21:01.392Z,31.23
2019-02-08T09:24:21.568Z,34.40
2019-02-08T09:27:20.610Z,33.10
2019-02-08T09:30:27.525Z,32.60
2019-02-08T09:33:54.979Z,33.43
2019-02-08T09:36:59.861Z,33.07
2019-02-08T09:40:09.156Z,32.17
2019-02-08T09:43:29.188Z,31.77
2019-02-08T09:46:36.640Z,32.30
2019-02-08T09:49:33.591Z,32.70
2019-02-08T09:52:41.113Z,31.20
2019-02-08T09:56:01.814Z,33.10
2019-02-08T09:59:28.725Z,31.50
2019-02-08T10:02:24.592Z,31.97
2019-02-08T10:05:32.383Z,32.47
2019-02-08T10:08:39.727Z,30.63
2019-02-08T10:11:44.944Z,30.17
2019-02-08T10:14:46.985Z,32.13
2019-02-08T10:17:41.946Z,30.20
2019-02-08T10:20:46.460Z,29.87
2019-02-08T10:24:06.997Z,26.93
2019-02-08T10:27:25.127Z,27.33
2019-02-08T10:30:43.542Z,28.60
2019-02-08T10:33:57.602Z,29.33
2019-02-08T10:37:02.555Z,28.93
2019-02-08T10:40:15.093Z,29.87
2019-02-08T10:43:22.586Z,30.80
2019-02-08T10:46:24.756Z,29.77
2019-02-08T10:49:42.697Z,36.10
2019-02-08T10:52:42.526Z,28.00
2019-02-08T10:55:25.820Z,28.63
2019-02-08T10:58:51.472Z,29.93
2019-02-08T11:01:43.001Z,29.13
2019-02-08T11:04:53.554Z,29.77
2019-02-08T11:08:16.319Z,29.20
2019-02-08T11:11:24.023Z,28.67
2019-02-08T11:14:34.469Z,29.40
2019-02-08T11:17:29.485Z,29.40
2019-02-08T11:19:57.179Z,29.73
2019-02-08T11:22:24.965Z,29.97
2019-02-08T11:24:52.662Z,30.50
2019-02-08T11:27:20.328Z,31.20
2019-02-08T11:29:47.977Z,30.57
2019-02-08T11:32:15.558Z,29.53
2019-02-08T11:34:43.296Z,30.63
2019-02-08T11:37:10.914Z,30.40
2019-02-08T11:39:38.609Z,30.37
2019-02-08T11:42:06.282Z,30.27
2019-02-08T11:44:34.076Z,28.60
2019-02-08T11:47:01.775Z,30.67
2019-02-08T11:49:29.541Z,29.50
2019-02-08T11:51:57.262Z,29.87
2019-02-08T11:54:25.889Z,31.10
2019-02-08T11:56:53.726Z,30.43
2019-02-08T11:59:22.291Z,30.80
2019-02-08T12:01:51.425Z,29.87
2019-02-08T12:04:19.202Z,29.43
2019-02-08T12:06:46.945Z,30.83
2019-02-08T12:09:15.834Z,30.43
2019-02-08T12:11:45.006Z,29.90
2019-02-08T12:14:12.761Z,30.23
2019-02-08T12:16:40.433Z,30.17
2019-02-08T12:19:08.985Z,35.17
2019-02-08T12:21:42.790Z,31.03
2019-02-08T12:24:17.771Z,31.37
2019-02-08T12:26:46.188Z,32.83
2019-02-08T12:29:14.712Z,31.47
2019-02-08T12:31:47.329Z,32.63
2019-02-08T12:34:20.124Z,31.43
2019-02-08T12:36:48.194Z,32.27
2019-02-08T12:39:16.239Z,30.03
2019-02-08T12:41:44.532Z,30.70
2019-02-08T12:44:12.791Z,31.03
2019-02-08T12:46:43.667Z,30.47
2019-02-08T12:49:11.751Z,30.13
2019-02-08T12:51:42.943Z,30.70
2019-02-08T12:54:12.981Z,29.37
2019-02-08T12:56:46.023Z,29.87
2019-02-08T12:59:17.649Z,28.43
2019-02-08T13:01:45.831Z,29.73
2019-02-08T13:04:14.255Z,27.87
2019-02-08T13:06:42.327Z,27.70
2019-02-08T13:09:11.789Z,29.30
2019-02-08T13:11:40.811Z,27.97
2019-02-08T13:14:09.664Z,28.57
2019-02-08T13:16:38.092Z,28.23
2019-02-08T13:19:08.951Z,28.23
2019-02-08T13:21:39.401Z,28.53
2019-02-08T13:24:07.680Z,28.57
2019-02-08T13:26:40.953Z,27.67
2019-02-08T13:29:11.462Z,27.60
2019-02-08T13:31:39.655Z,29.27
2019-02-08T13:34:07.418Z,27.37
2019-02-08T13:36:35.447Z,27.13
2019-02-08T13:39:05.607Z,28.53
2019-02-08T13:41:33.668Z,27.37
2019-02-08T13:44:01.614Z,28.87
2019-02-08T13:46:29.665Z,28.70
2019-02-08T13:48:57.473Z,28.60
2019-02-08T13:51:25.458Z,28.53
2019-02-08T13:53:53.829Z,25.97
2019-02-08T13:56:21.994Z,25.20
2019-02-08T13:58:51.888Z,24.07
2019-02-08T14:01:22.539Z,24.10
2019-02-08T14:03:52.652Z,24.43
2019-02-08T14:06:20.612Z,24.43
2019-02-08T14:08:48.748Z,26.50
2019-02-08T14:11:16.671Z,26.37
2019-02-08T14:13:44.654Z,26.50
2019-02-08T14:16:22.921Z,25.20
2019-02-08T14:18:54.804Z,23.33
2019-02-08T14:21:22.806Z,22.63
2019-02-08T14:23:50.829Z,24.70
2019-02-08T14:26:18.890Z,23.70
2019-02-08T14:28:46.808Z,23.77
2019-02-08T14:31:14.821Z,25.93
2019-02-08T14:33:42.742Z,24.87
2019-02-08T14:36:10.760Z,26.57
2019-02-08T14:38:38.682Z,24.23
2019-02-08T14:41:06.748Z,24.20
2019-02-08T14:43:34.614Z,25.50
2019-02-08T14:46:02.814Z,24.93
2019-02-08T14:48:30.542Z,25.80
2019-02-08T14:50:58.566Z,26.47
2019-02-08T14:53:27.744Z,24.93
2019-02-08T14:55:55.644Z,24.33
2019-02-08T14:58:25.668Z,24.03
2019-02-08T15:01:00.528Z,24.47
2019-02-08T15:05:58.912Z,21.73
2019-02-08T15:08:26.877Z,22.43
2019-02-08T15:10:55.221Z,23.57
2019-02-08T15:13:23.645Z,22.83
2019-02-08T15:15:52.596Z,22.17
2019-02-08T15:18:20.609Z,23.47
2019-02-08T15:20:48.902Z,24.27
2019-02-08T15:23:16.854Z,23.87
2019-02-08T15:25:46.925Z,23.40
2019-02-08T15:28:15.514Z,23.43
2019-02-08T15:30:50.656Z,25.67
2019-02-08T15:33:18.832Z,26.67
2019-02-08T15:35:50.651Z,27.33
2019-02-08T15:38:19.919Z,28.23
2019-02-08T15:40:52.213Z,31.43
2019-02-08T15:43:22.321Z,29.30
2019-02-08T15:45:56.372Z,30.27
2019-02-08T15:48:25.034Z,34.00
2019-02-08T15:50:54.557Z,32.93
2019-02-08T15:53:23.877Z,32.03
2019-02-08T15:55:55.732Z,32.87
2019-02-08T15:58:25.580Z,34.27
2019-02-08T16:00:56.067Z,33.47
2019-02-08T16:03:27.028Z,33.07
2019-02-08T16:05:56.133Z,32.43
2019-02-08T16:08:25.109Z,31.07
2019-02-08T16:10:56.122Z,30.90
2019-02-08T16:13:24.753Z,31.97
2019-02-08T16:15:52.873Z,30.40
2019-02-08T16:18:21.500Z,32.10
2019-02-08T16:20:54.545Z,31.80
2019-02-08T16:24:14.839Z,30.67
2019-02-08T16:26:42.239Z,31.20
2019-02-08T16:29:13.469Z,32.03
2019-02-08T16:31:41.835Z,30.40
2019-02-08T16:34:10.960Z,32.17
2019-02-08T16:36:38.924Z,32.30
2019-02-08T16:39:09.402Z,31.07
2019-02-08T16:41:49.248Z,32.63
2019-02-08T16:44:17.980Z,31.23
2019-02-08T16:46:50.847Z,31.17
2019-02-08T16:49:21.499Z,31.50
2019-02-08T16:51:51.939Z,31.47
2019-02-08T16:54:20.195Z,30.57
2019-02-08T16:56:48.526Z,32.17
2019-02-08T16:59:16.454Z,30.77
2019-02-08T17:01:44.747Z,32.30
2019-02-08T17:04:13.660Z,31.20
2019-02-08T17:06:41.872Z,31.53
2019-02-08T17:09:15.894Z,30.83
2019-02-08T17:11:43.888Z,30.90
2019-02-08T17:14:12.782Z,32.40
2019-02-08T17:16:42.574Z,31.67
2019-02-08T17:19:10.536Z,33.17
2019-02-08T17:21:38.633Z,32.90
2019-02-08T17:24:08.136Z,33.00
2019-02-08T17:26:36.557Z,33.17
2019-02-08T17:29:04.866Z,32.20
2019-02-08T17:31:32.970Z,31.43
2019-02-08T17:34:01.160Z,33.83
2019-02-08T17:36:29.163Z,32.63
2019-02-08T17:38:57.224Z,33.87
2019-02-08T17:41:25.173Z,34.67
2019-02-08T17:43:53.420Z,33.57
2019-02-08T17:46:21.801Z,35.37
2019-02-08T17:48:50.545Z,32.70
2019-02-08T17:51:18.449Z,34.53
2019-02-08T17:53:46.743Z,35.27
2019-02-08T17:56:14.979Z,34.17
2019-02-08T17:58:43.125Z,34.77
2019-02-08T18:01:11.104Z,36.43
2019-02-08T18:03:40.729Z,35.33
2019-02-08T18:06:09.330Z,34.97
2019-02-08T18:08:37.348Z,36.40
2019-02-08T18:11:05.256Z,35.87
2019-02-08T18:13:33.237Z,36.63
2019-02-08T18:16:01.191Z,35.93
2019-02-08T18:18:29.136Z,35.50
2019-02-08T18:21:00.179Z,38.17
2019-02-08T18:23:31.149Z,38.13
2019-02-08T18:25:59.324Z,37.73
2019-02-08T18:28:27.206Z,38.87
2019-02-08T18:30:55.560Z,41.83
2019-02-08T18:33:23.818Z,41.03
2019-02-08T18:35:58.887Z,40.13
2019-02-08T18:38:27.628Z,40.10
2019-02-08T18:40:56.973Z,43.30
2019-02-08T18:43:25.135Z,43.83
2019-02-08T18:45:53.391Z,45.73
2019-02-08T18:48:49.240Z,43.67
2019-02-08T18:51:18.770Z,43.87
2019-02-08T18:57:01.039Z,42.60
2019-02-08T18:59:46.630Z,42.43
2019-02-08T19:02:15.643Z,41.20
2019-02-08T19:04:51.918Z,41.73
2019-02-08T19:07:20.305Z,40.83
2019-02-08T19:09:51.670Z,40.63
2019-02-08T19:12:22.971Z,42.03
2019-02-08T19:21:21.330Z,42.80
2019-02-08T19:26:27.058Z,45.77
2019-02-08T19:28:55.272Z,46.83
2019-02-08T19:31:46.464Z,46.13
2019-02-08T19:34:19.294Z,48.43
2019-02-08T19:36:52.264Z,48.87
2019-02-08T19:39:20.324Z,50.53
2019-02-08T19:41:49.642Z,50.03
2019-02-08T19:44:17.696Z,50.10
2019-02-08T19:46:46.169Z,52.00
2019-02-08T19:49:14.649Z,52.13
2019-02-08T19:51:48.151Z,52.43
2019-02-08T19:55:00.458Z,50.70
2019-02-08T19:57:59.549Z,52.27
2019-02-08T20:00:44.416Z,52.83
2019-02-08T20:03:14.264Z,50.90
2019-02-08T20:05:42.543Z,53.20
2019-02-08T20:08:12.214Z,52.30
2019-02-08T20:10:41.625Z,51.60
2019-02-08T20:13:09.792Z,51.87
2019-02-08T20:15:38.077Z,49.33
2019-02-08T20:18:08.687Z,50.97
2019-02-08T20:20:36.788Z,52.47
2019-02-08T20:23:05.225Z,52.73
2019-02-08T20:25:33.450Z,53.00
2019-02-08T20:28:01.655Z,51.90
2019-02-08T20:30:30.926Z,56.27
2019-02-08T20:33:00.395Z,90.43
2019-02-08T20:35:28.325Z,62.47
2019-02-08T20:37:56.224Z,62.93
2019-02-08T20:40:32.233Z,64.30
2019-02-08T20:43:00.428Z,60.57
2019-02-08T20:45:29.834Z,60.07
2019-02-08T20:48:02.403Z,65.57
2019-02-08T20:50:30.518Z,60.03
2019-02-08T20:52:58.634Z,65.20
2019-02-08T20:55:26.708Z,62.53
2019-02-08T20:57:57.724Z,64.73
2019-02-08T21:00:33.934Z,71.93
2019-02-08T21:03:02.097Z,71.53
2019-02-08T21:05:30.412Z,70.37
2019-02-08T21:07:58.599Z,75.83
2019-02-08T21:10:28.127Z,76.90
2019-02-08T21:12:57.188Z,76.23
2019-02-08T21:15:25.972Z,78.63
2019-02-08T21:17:56.758Z,73.40
2019-02-08T21:20:28.039Z,74.60
2019-02-08T21:22:55.346Z,78.07
2019-02-08T21:25:25.358Z,78.97
2019-02-08T21:27:53.788Z,81.63
2019-02-08T21:30:22.186Z,81.43
2019-02-08T21:32:50.269Z,83.93
2019-02-08T21:35:18.398Z,77.90
2019-02-08T21:37:46.530Z,76.20
2019-02-08T21:40:17.101Z,82.00
2019-02-08T21:42:46.742Z,78.37
2019-02-08T21:45:18.258Z,80.10
2019-02-08T21:47:46.548Z,83.20
2019-02-08T21:50:15.795Z,81.37
2019-02-08T21:52:43.802Z,83.60
2019-02-08T21:55:12.526Z,87.13
2019-02-08T21:57:40.666Z,83.37
2019-02-08T22:00:17.735Z,85.27
2019-02-08T22:02:45.846Z,85.27
2019-02-08T22:05:14.161Z,87.53
2019-02-08T22:07:42.486Z,83.33
2019-02-08T22:10:11.420Z,87.63
2019-02-08T22:12:39.509Z,87.23
2019-02-08T22:15:10.871Z,89.03
2019-02-08T22:17:40.940Z,89.30
2019-02-08T22:20:12.920Z,89.97
2019-02-08T22:22:41.067Z,90.73
2019-02-08T22:25:10.826Z,92.00
2019-02-08T22:27:39.120Z,84.40
2019-02-08T22:30:10.708Z,91.03
2019-02-08T22:32:38.829Z,90.20
2019-02-08T22:35:11.409Z,92.07
2019-02-08T22:37:41.451Z,95.23
2019-02-08T22:40:12.040Z,90.23
2019-02-08T22:42:41.021Z,98.53
2019-02-08T22:45:16.336Z,95.17
2019-02-08T22:47:44.374Z,96.27
2019-02-08T22:50:12.573Z,89.07
2019-02-08T22:52:40.495Z,88.67
2019-02-08T22:55:11.141Z,84.10
2019-02-08T22:57:38.972Z,84.77
2019-02-08T23:00:36.502Z,91.37
2019-02-08T23:03:05.250Z,93.00
2019-02-08T23:05:33.372Z,91.10
2019-02-08T23:08:01.402Z,92.57
2019-02-08T23:10:29.301Z,93.50
2019-02-08T23:12:57.369Z,90.90
2019-02-08T23:15:25.491Z,91.43
2019-02-08T23:17:53.360Z,93.07
2019-02-08T23:20:21.347Z,92.30
2019-02-08T23:22:49.171Z,96.50
2019-02-08T23:25:16.950Z,95.90
2019-02-08T23:27:44.898Z,93.43
2019-02-08T23:30:15.595Z,96.80
2019-02-08T23:32:43.650Z,96.23
2019-02-08T23:35:11.490Z,97.63
2019-02-08T23:37:39.474Z,93.47
2019-02-08T23:40:07.432Z,99.83
2019-02-08T23:42:35.636Z,96.87
2019-02-08T23:45:04.028Z,99.10
2019-02-08T23:47:32.242Z,99.67
2019-02-08T23:50:00.212Z,102.50
2019-02-08T23:52:28.340Z,105.17
2019-02-08T23:54:56.304Z,104.30
2019-02-08T23:57:24.287Z,105.73
2019-02-08T23:59:52.262Z,105.97
